Time;durP1;ratioP1;P1;durP2;ratioP2;P2;SDS_P1;SDS_P2;PMS_P1;PMS_P2;Temp;Humidity;BMP_temperature;BMP_pressure;BME280_temperature;BME280_humidity;BME280_pressure;Samples;Min_cycle;Max_cycle;Signal;HPM_P1;HPM_P2
2022/11/12 00:02:58;;;;;;;54.33;29.65;;;;;;;4.16;78.64;101878.67;2107894;84;30114;-65
2022/11/12 00:05:59;;;;;;;51.23;28.67;;;;;;;4.12;78.62;101880.44;2108528;83;27684;-66
2022/11/12 00:09:01;;;;;;;59.18;30.50;;;;;;;4.09;78.68;101884.41;2108419;84;28614;-66
2022/11/12 00:12:03;;;;;;;49.40;28.07;;;;;;;4.04;78.71;101887.05;2108464;84;31062;-67
2022/11/12 00:15:06;;;;;;;52.80;28.83;;;;;;;4.03;78.67;101897.21;2108541;84;33724;-66
2022/11/12 00:18:08;;;;;;;56.68;30.27;;;;;;;4.00;78.74;101895.00;2108588;83;29411;-66
2022/11/12 00:21:09;;;;;;;50.83;28.35;;;;;;;3.94;78.71;101897.19;2108705;84;27685;-66
2022/11/12 00:24:11;;;;;;;55.92;29.87;;;;;;;3.91;78.76;101893.20;2108443;84;29495;-66
2022/11/12 00:27:12;;;;;;;47.25;28.70;;;;;;;3.87;78.73;101898.94;2108671;84;31815;-67
2022/11/12 00:30:14;;;;;;;46.95;28.05;;;;;;;3.84;78.78;101898.02;2108746;84;32945;-65
2022/11/12 00:33:15;;;;;;;47.65;27.25;;;;;;;3.80;78.85;101894.47;2108618;84;29337;-66
2022/11/12 00:36:17;;;;;;;56.00;33.28;;;;;;;3.77;78.84;101894.45;2108754;84;27579;-66
2022/11/12 00:39:19;;;;;;;64.62;31.30;;;;;;;3.74;78.87;101894.44;2108772;84;28639;-66
2022/11/12 00:42:20;;;;;;;51.88;30.15;;;;;;;3.71;78.85;101899.29;2119671;83;31010;-66
2022/11/12 00:45:22;;;;;;;52.60;29.12;;;;;;;3.67;78.89;101902.80;2126371;83;33077;-65
2022/11/12 00:48:24;;;;;;;60.63;31.82;;;;;;;3.64;78.87;101912.95;2126051;83;29392;-65
2022/11/12 00:51:26;;;;;;;55.73;31.40;;;;;;;3.60;78.95;101908.51;2126464;83;27603;-65
2022/11/12 00:54:27;;;;;;;55.35;32.03;;;;;;;3.57;78.94;101905.83;2126438;83;28810;-65
2022/11/12 00:57:31;;;;;;;60.88;32.15;;;;;;;3.55;78.98;101910.27;2125600;83;27785;-68
2022/11/12 01:00:32;;;;;;;62.38;33.73;;;;;;;3.51;78.96;101903.17;2126083;83;33764;-68
2022/11/12 01:03:36;;;;;;;57.33;31.50;;;;;;;3.49;78.99;101903.59;2126140;83;29481;-66
2022/11/12 01:06:40;;;;;;;54.93;31.50;;;;;;;3.45;79.00;101904.03;2126222;83;27953;-67
2022/11/12 01:09:41;;;;;;;55.08;30.92;;;;;;;3.43;79.04;101904.87;2126128;83;28655;-66
2022/11/12 01:12:43;;;;;;;52.67;29.95;;;;;;;3.39;79.12;101902.66;2126304;83;31848;-64
2022/11/12 01:15:45;;;;;;;55.92;31.73;;;;;;;3.38;79.16;101902.66;2126159;83;33017;-65
2022/11/12 01:18:47;;;;;;;52.25;30.90;;;;;;;3.36;79.20;101904.41;2126368;83;29377;-65
2022/11/12 01:21:48;;;;;;;58.92;31.82;;;;;;;3.34;79.34;101906.61;2126330;83;27682;-64
2022/11/12 01:24:50;;;;;;;51.00;30.97;;;;;;;3.33;79.28;101901.28;2126261;83;28700;-67
2022/11/12 01:27:52;;;;;;;53.50;31.10;;;;;;;3.29;79.23;101899.52;2126296;83;31020;-64
2022/11/12 01:30:54;;;;;;;54.75;29.10;;;;;;;3.26;79.23;101905.66;2126158;83;33019;-65
2022/11/12 01:33:58;;;;;;;54.20;29.18;;;;;;;3.23;79.31;101899.00;2126145;83;29392;-65
2022/11/12 01:37:00;;;;;;;52.48;28.70;;;;;;;3.21;79.37;101895.91;2126465;83;33101;-65
2022/11/12 01:40:01;;;;;;;51.63;29.63;;;;;;;3.18;79.41;101897.66;2126306;83;29430;-66
2022/11/12 01:43:03;;;;;;;52.35;28.90;;;;;;;3.16;79.46;101898.53;2125814;83;31020;-68
2022/11/12 01:46:19;;;;;;;55.73;29.55;;;;;;;3.14;79.47;101904.25;2126119;83;32989;-68
2022/11/12 01:49:41;;;;;;;49.80;27.95;;;;;;;3.12;79.47;101903.34;2126021;83;29389;-68
2022/11/12 01:52:47;;;;;;;55.88;28.07;;;;;;;3.09;79.51;101905.55;2126286;83;27686;-66
2022/11/12 01:55:49;;;;;;;47.53;28.02;;;;;;;3.06;79.47;101904.20;2126089;83;28670;-68
2022/11/12 01:58:56;;;;;;;44.75;27.48;;;;;;;3.02;79.48;101900.65;2126172;83;31005;-67
2022/11/12 02:01:58;;;;;;;45.58;27.07;;;;;;;2.99;79.47;101901.94;2126206;83;32952;-65
2022/11/12 02:05:00;;;;;;;45.67;27.67;;;;;;;2.96;79.50;101895.75;2126123;83;29329;-68
2022/11/12 02:08:03;;;;;;;49.77;27.80;;;;;;;2.94;79.54;101893.52;2125878;83;27729;-67
2022/11/12 02:11:20;;;;;;;48.33;26.00;;;;;;;2.91;79.49;101897.01;2126140;83;29490;-67
2022/11/12 02:14:23;;;;;;;48.68;27.82;;;;;;;2.89;79.56;101894.36;2126084;83;31848;-67
2022/11/12 02:17:24;;;;;;;51.85;27.02;;;;;;;2.86;79.57;101893.46;2124326;83;33026;-66
2022/11/12 02:20:26;;;;;;;48.08;25.43;;;;;;;2.82;79.53;101888.55;2126211;83;29376;-66
2022/11/12 02:23:28;;;;;;;52.23;26.52;;;;;;;2.79;79.57;101887.66;2126217;83;27781;-67
2022/11/12 02:26:36;;;;;;;49.98;27.87;;;;;;;2.77;79.65;101886.33;2126111;83;28633;-65
2022/11/12 02:29:45;;;;;;;50.63;27.48;;;;;;;2.74;79.69;101887.17;2126079;83;32168;-66
2022/11/12 02:32:41;;;;;;;52.38;29.15;;;;;;;2.72;79.69;101888.95;2126198;83;33697;-65
2022/11/12 02:35:42;;;;;;;53.42;28.30;;;;;;;2.70;79.71;101893.75;2126347;83;29314;-66
2022/11/12 02:38:44;;;;;;;51.30;28.05;;;;;;;2.67;79.74;101899.91;2126460;83;27797;-66
2022/11/12 02:41:46;;;;;;;49.65;26.60;;;;;;;2.65;79.81;101891.52;2126203;83;29550;-65
2022/11/12 02:44:47;;;;;;;54.25;28.62;;;;;;;2.63;79.77;101895.91;2125850;83;31891;-67
2022/11/12 02:47:49;;;;;;;49.63;26.70;;;;;;;2.61;79.75;101902.95;2126152;83;33803;-68
2022/11/12 02:50:50;;;;;;;48.52;27.05;;;;;;;2.57;79.77;101896.30;2126302;83;29314;-69
2022/11/12 02:53:52;;;;;;;53.87;28.60;;;;;;;2.55;79.81;101888.78;2126478;83;27714;-69
2022/11/12 02:56:54;;;;;;;49.10;27.75;;;;;;;2.54;79.85;101886.13;2126171;83;28646;-68
2022/11/12 02:59:55;;;;;;;53.20;27.95;;;;;;;2.52;79.79;101885.22;2126238;83;31020;-68
2022/11/12 03:03:00;;;;;;;52.95;28.80;;;;;;;2.51;79.88;101896.23;2126095;83;32940;-67
2022/11/12 03:06:02;;;;;;;51.98;28.65;;;;;;;2.48;79.90;101890.94;2126393;83;29335;-67
2022/11/12 03:09:03;;;;;;;55.33;29.72;;;;;;;2.47;79.93;101893.12;2126037;83;27611;-69
2022/11/12 03:12:05;;;;;;;56.33;28.92;;;;;;;2.45;79.91;101890.89;2126140;83;29389;-69
2022/11/12 03:15:08;;;;;;;49.70;27.45;;;;;;;2.43;79.91;101894.83;2126131;83;31186;-66
2022/11/12 03:18:10;;;;;;;50.20;28.77;;;;;;;2.43;79.96;101892.63;2126052;83;33098;-68
2022/11/12 03:21:11;;;;;;;48.00;28.77;;;;;;;2.41;79.95;101893.92;2125658;83;29550;-70
2022/11/12 03:24:13;;;;;;;55.50;31.15;;;;;;;2.39;79.99;101891.73;2126314;83;27705;-65
2022/11/12 03:27:31;;;;;;;48.00;27.15;;;;;;;2.39;79.99;101893.47;2125917;83;28695;-67
2022/11/12 03:30:29;;;;;;;53.42;28.07;;;;;;;2.37;80.01;101891.23;2014056;88;27946;-66
2022/11/12 03:33:44;;;;;;;54.05;29.63;;;;;;;2.35;80.06;101896.95;2019859;88;32969;-66
2022/11/12 03:36:47;;;;;;;64.40;36.60;;;;;;;2.34;80.03;101895.17;1884541;94;27821;-66
2022/11/12 03:39:49;;;;;;;67.45;38.28;;;;;;;2.32;80.16;101894.30;1885221;94;28090;-67
2022/11/12 03:42:51;;;;;;;58.30;32.60;;;;;;;2.31;80.20;101896.48;1885047;94;29656;-68
2022/11/12 03:45:53;;;;;;;49.77;31.33;;;;;;;2.30;80.21;101894.71;1885150;94;31922;-67
2022/11/12 03:48:55;;;;;;;56.20;31.33;;;;;;;2.29;80.17;101897.77;1884968;94;34184;-69
2022/11/12 03:51:56;;;;;;;55.88;30.25;;;;;;;2.26;80.16;101893.77;1885362;94;29332;-66
2022/11/12 03:54:58;;;;;;;50.55;27.05;;;;;;;2.26;80.14;101902.61;1885417;94;27871;-67
2022/11/12 03:57:59;;;;;;;47.10;27.35;;;;;;;2.23;80.10;101897.28;1885437;94;28676;-68
2022/11/12 04:01:01;;;;;;;52.93;26.57;;;;;;;2.19;80.07;101891.49;1885385;94;31114;-67
2022/11/12 04:04:03;;;;;;;48.58;26.12;;;;;;;2.19;80.16;101891.95;1884957;94;33195;-67
2022/11/12 04:10:29;;;;;;;49.80;26.95;;;;;;;2.15;80.16;101894.09;1885319;94;27788;-68
2022/11/12 04:13:32;;;;;;;50.05;24.57;;;;;;;2.12;80.23;101894.96;1885410;94;28689;-68
2022/11/12 04:23:13;;;;;;;51.73;25.00;;;;;;;2.06;80.25;101895.78;1885131;94;29405;-67
2022/11/12 04:26:24;;;;;;;44.90;24.82;;;;;;;2.05;80.29;101894.42;1901335;91;27638;-65
2022/11/12 04:32:55;;;;;;;46.55;24.63;;;;;;;2.03;80.30;101893.52;1953077;89;32005;-66
2022/11/12 04:35:57;;;;;;;43.48;23.65;;;;;;;2.00;80.36;101890.83;1972100;90;32994;-66
2022/11/12 04:39:02;;;;;;;44.00;23.55;;;;;;;1.97;80.33;101895.23;1989558;85;28752;-69
2022/11/12 04:45:23;;;;;;;45.65;23.27;;;;;;;1.94;80.37;101885.05;2074487;85;28720;-68
2022/11/12 04:48:25;;;;;;;40.15;22.50;;;;;;;1.91;80.34;101881.94;2074679;85;30511;-68
2022/11/12 04:54:47;;;;;;;41.25;22.67;;;;;;;1.88;80.33;101883.67;2074483;85;30152;-68
2022/11/12 04:57:49;;;;;;;43.80;22.93;;;;;;;1.86;80.35;101886.72;2074838;85;27651;-67
2022/11/12 05:00:53;;;;;;;36.50;21.45;;;;;;;1.85;80.38;101884.50;2074839;85;28663;-67
2022/11/12 05:03:54;;;;;;;42.78;21.97;;;;;;;1.84;80.39;101888.45;2074838;85;31053;-68
2022/11/12 05:06:57;;;;;;;44.98;24.02;;;;;;;1.82;80.42;101895.06;2074628;85;32952;-68
2022/11/12 05:09:58;;;;;;;42.43;22.87;;;;;;;1.81;80.42;101898.56;2074816;85;29332;-69
2022/11/12 05:13:00;;;;;;;46.48;25.08;;;;;;;1.81;80.50;101903.84;2075005;85;28350;-70
2022/11/12 05:16:01;;;;;;;42.83;23.40;;;;;;;1.80;80.51;101902.94;2074917;85;28823;-70
2022/11/12 05:19:03;;;;;;;37.03;21.00;;;;;;;1.79;80.49;101905.58;2074641;85;31725;-69
2022/11/12 05:22:05;;;;;;;38.60;21.95;;;;;;;1.77;80.42;101904.22;2074881;85;33787;-69
2022/11/12 05:25:08;;;;;;;37.73;20.77;;;;;;;1.76;80.42;101910.37;2074816;85;30332;-70
2022/11/12 05:28:09;;;;;;;38.42;21.57;;;;;;;1.74;80.44;101909.91;2074897;85;27983;-68
2022/11/12 05:31:11;;;;;;;41.73;22.73;;;;;;;1.73;80.50;101905.48;2074831;85;28657;-69
2022/11/12 05:34:12;;;;;;;39.75;22.45;;;;;;;1.72;80.49;101907.67;2074811;85;31038;-71
2022/11/12 05:37:14;;;;;;;40.35;23.90;;;;;;;1.69;80.49;101917.78;2074916;85;32970;-70
2022/11/12 05:40:16;;;;;;;43.13;22.42;;;;;;;1.68;80.57;101913.36;2074824;85;29420;-70
2022/11/12 05:43:18;;;;;;;37.40;22.65;;;;;;;1.68;80.60;101916.00;2070964;85;27711;-70
2022/11/12 05:46:20;;;;;;;35.78;22.00;;;;;;;1.67;80.72;101915.55;2065484;86;28949;-69
2022/11/12 05:49:22;;;;;;;37.63;21.55;;;;;;;1.69;80.80;101919.52;2065438;86;31054;-71
2022/11/12 05:52:26;;;;;;;34.50;21.33;;;;;;;1.67;80.73;101919.06;2065365;86;36731;-70
2022/11/12 05:55:28;;;;;;;46.42;21.33;;;;;;;1.67;80.79;101923.02;2065109;86;30236;-68
2022/11/12 05:58:30;;;;;;;40.75;20.62;;;;;;;1.65;80.77;101928.75;2065511;86;27766;-70
2022/11/12 06:01:34;;;;;;;35.98;19.82;;;;;;;1.66;80.79;101928.30;2065418;85;29151;-68
2022/11/12 06:04:40;;;;;;;41.70;22.37;;;;;;;1.66;80.94;101931.81;2065488;85;31285;-71
2022/11/12 06:08:02;;;;;;;34.50;20.90;;;;;;;1.67;81.01;101928.31;2060815;86;28792;-70
2022/11/12 06:10:59;;;;;;;40.75;23.60;;;;;;;1.69;81.04;101936.27;2061905;86;27735;-66
2022/11/12 06:14:01;;;;;;;44.70;24.30;;;;;;;1.70;81.03;101937.14;2065024;86;27713;-66
2022/11/12 06:17:03;;;;;;;45.90;23.42;;;;;;;1.73;81.15;101935.88;2065312;86;28771;-67
2022/11/12 06:20:06;;;;;;;45.38;23.75;;;;;;;1.75;81.20;101942.94;2065384;86;31046;-69
2022/11/12 06:23:08;;;;;;;47.15;22.67;;;;;;;1.77;81.20;101945.17;2065296;86;33206;-67
2022/11/12 06:26:09;;;;;;;63.08;27.62;;;;;;;1.79;81.22;101951.38;2065467;86;30150;-68
2022/11/12 06:29:11;;;;;;;48.80;25.05;;;;;;;1.81;81.26;101953.61;2065573;86;27728;-68
2022/11/12 06:32:13;;;;;;;47.80;24.35;;;;;;;1.86;81.32;101952.79;2065473;86;28743;-68
2022/11/12 06:35:15;;;;;;;51.50;26.20;;;;;;;1.89;81.36;101960.31;2065318;86;31203;-66
2022/11/12 06:38:17;;;;;;;50.12;25.50;;;;;;;1.94;81.52;101955.08;2065385;86;33784;-67
2022/11/12 06:41:18;;;;;;;52.35;25.65;;;;;;;1.99;81.61;101957.81;2065424;86;29332;-65
2022/11/12 06:44:20;;;;;;;48.87;23.67;;;;;;;2.03;81.61;101956.53;2065357;85;27699;-67
2022/11/12 06:47:22;;;;;;;54.53;24.82;;;;;;;2.07;81.69;101958.77;2065197;86;29541;-66
2022/11/12 06:50:23;;;;;;;47.73;23.00;;;;;;;2.12;81.83;101957.95;2065423;86;31064;-66
2022/11/12 06:53:25;;;;;;;46.15;23.50;;;;;;;2.20;81.96;101962.47;2065419;86;32939;-66
2022/11/12 06:56:26;;;;;;;42.80;23.15;;;;;;;2.27;82.08;101960.33;2065591;86;30114;-67
2022/11/12 06:59:28;;;;;;;48.63;23.40;;;;;;;2.34;82.19;101965.25;2065666;86;28320;-67
2022/11/12 07:02:30;;;;;;;44.88;21.68;;;;;;;2.40;82.20;101960.91;2065669;86;28639;-67
2022/11/12 07:05:31;;;;;;;37.42;21.23;;;;;;;2.48;82.28;101968.97;2065419;86;31152;-67
2022/11/12 07:08:33;;;;;;;43.17;21.17;;;;;;;2.56;82.40;101969.05;2044139;86;33788;-68
2022/11/12 07:11:34;;;;;;;38.13;21.35;;;;;;;2.65;82.56;101968.26;2065416;86;30143;-68
2022/11/12 07:14:36;;;;;;;40.48;21.25;;;;;;;2.76;82.67;101966.59;2065348;86;28211;-67
2022/11/12 07:17:38;;;;;;;36.53;19.12;;;;;;;2.85;82.65;101967.12;2065564;86;28649;-66
2022/11/12 07:20:39;;;;;;;34.88;19.87;;;;;;;2.93;82.69;101965.87;2065463;86;31287;-68
2022/11/12 07:23:41;;;;;;;37.48;20.40;;;;;;;3.03;82.74;101970.36;2065442;86;33931;-67
2022/11/12 07:26:43;;;;;;;33.15;19.57;;;;;;;3.15;82.86;101970.91;2065419;86;30367;-67
2022/11/12 07:29:45;;;;;;;31.80;19.10;;;;;;;3.26;82.94;101971.87;2065505;86;27707;-68
2022/11/12 07:32:47;;;;;;;34.83;19.40;;;;;;;3.38;83.10;101972.41;2065494;85;28690;-66
2022/11/12 07:35:48;;;;;;;30.02;18.12;;;;;;;3.53;83.24;101969.41;2065323;86;31906;-66
2022/11/12 07:38:52;;;;;;;26.85;16.75;;;;;;;3.68;83.45;101969.95;2044346;86;33371;-65
2022/11/12 07:41:54;;;;;;;29.37;17.20;;;;;;;3.85;83.63;101968.71;2065399;86;29497;-65
2022/11/12 07:44:56;;;;;;;28.50;17.95;;;;;;;4.04;83.77;101973.69;2071820;85;27633;-65
2022/11/12 07:48:00;;;;;;;31.05;17.55;;;;;;;4.23;84.03;101962.25;2074799;85;29550;-65
2022/11/12 07:51:05;;;;;;;25.55;16.52;;;;;;;4.46;84.12;101968.54;2075068;85;31031;-65
2022/11/12 07:54:06;;;;;;;31.10;15.48;;;;;;;4.65;84.13;101967.67;2074921;85;32982;-67
2022/11/12 07:57:08;;;;;;;30.65;17.12;;;;;;;4.85;84.13;101967.73;2074928;85;29479;-66
2022/11/12 08:00:11;;;;;;;31.02;17.12;;;;;;;5.02;84.09;101965.07;2074902;85;27680;-66
2022/11/12 08:03:13;;;;;;;35.65;16.95;;;;;;;5.21;84.11;101970.84;2074755;85;29709;-65
2022/11/12 08:06:14;;;;;;;26.77;16.00;;;;;;;5.40;84.04;101966.39;2074693;85;31256;-66
2022/11/12 08:09:16;;;;;;;28.95;15.88;;;;;;;5.57;84.07;101962.36;2074652;85;32964;-66
2022/11/12 08:12:17;;;;;;;27.82;15.68;;;;;;;5.75;84.10;101964.98;2074490;85;29562;-67
2022/11/12 08:15:19;;;;;;;22.22;14.75;;;;;;;5.95;83.99;101966.70;2074755;85;27633;-67
2022/11/12 08:18:21;;;;;;;25.00;15.55;;;;;;;6.12;83.88;101965.80;2074685;85;29568;-66
2022/11/12 08:21:22;;;;;;;29.55;14.78;;;;;;;6.30;83.85;101966.14;2074763;85;31027;-67
2022/11/12 08:24:24;;;;;;;23.80;13.60;;;;;;;6.48;83.70;101963.84;2074766;85;33773;-68
2022/11/12 08:27:26;;;;;;;24.63;13.10;;;;;;;6.65;83.52;101979.28;2074693;85;29370;-68
2022/11/12 08:30:29;;;;;;;23.80;15.18;;;;;;;6.81;83.45;101981.38;2074483;85;27636;-67
2022/11/12 08:33:30;;;;;;;23.57;12.85;;;;;;;6.97;83.40;101975.51;2074669;85;28664;-67
2022/11/12 08:36:32;;;;;;;20.57;12.28;;;;;;;7.14;83.22;101979.83;2074829;85;31095;-67
2022/11/12 08:39:34;;;;;;;21.37;12.82;;;;;;;7.29;83.10;101980.13;2074669;85;33167;-67
2022/11/12 08:42:35;;;;;;;18.85;11.75;;;;;;;7.44;82.98;101978.69;2074759;85;29246;-68
2022/11/12 08:45:39;;;;;;;20.08;11.20;;;;;;;7.59;82.84;101975.42;2067100;85;27658;-67
2022/11/12 08:48:41;;;;;;;16.37;11.83;;;;;;;7.72;82.61;101981.06;2065556;86;28757;-67
2022/11/12 08:51:42;;;;;;;20.27;12.03;;;;;;;7.85;82.39;101967.58;2065515;86;31263;-68
2022/11/12 08:54:44;;;;;;;18.62;10.38;;;;;;;8.00;82.26;101973.20;2065549;86;32951;-67
2022/11/12 08:57:46;;;;;;;17.27;10.78;;;;;;;8.12;82.14;101967.70;2065517;86;29323;-67
2022/11/12 09:00:49;;;;;;;17.35;10.63;;;;;;;8.26;81.89;101964.88;2065598;86;27803;-67
2022/11/12 09:03:51;;;;;;;22.15;11.45;;;;;;;8.38;81.64;101969.14;2065580;86;28650;-68
2022/11/12 09:06:53;;;;;;;17.27;9.88;;;;;;;8.50;81.35;101974.38;2065538;86;31200;-68
2022/11/12 09:09:54;;;;;;;18.32;10.40;;;;;;;8.63;81.34;101978.20;2044452;86;33756;-66
2022/11/12 09:12:56;;;;;;;14.70;9.25;;;;;;;8.73;80.99;101969.13;2065712;86;29320;-68
2022/11/12 09:16:05;;;;;;;17.50;9.63;;;;;;;8.83;80.79;101968.54;2065604;86;27712;-68
2022/11/12 09:19:06;;;;;;;15.32;9.68;;;;;;;8.92;80.55;101964.41;2074252;85;28652;-67
2022/11/12 09:22:08;;;;;;;15.45;9.63;;;;;;;9.02;80.39;101975.80;2074064;85;31358;-67
2022/11/12 09:25:09;;;;;;;16.87;9.05;;;;;;;9.13;80.10;101979.64;2038867;87;33107;-67
2022/11/12 09:28:17;;;;;;;17.57;9.68;;;;;;;9.22;79.88;101974.59;2074641;85;29379;-66
2022/11/12 09:31:18;;;;;;;15.75;8.85;;;;;;;9.31;79.72;101973.13;2034091;87;27664;-68
2022/11/12 09:34:20;;;;;;;15.03;9.15;;;;;;;9.41;79.51;101973.84;2074690;85;28652;-68
2022/11/12 09:37:22;;;;;;;13.90;8.68;;;;;;;9.51;79.43;101978.58;2074347;85;31869;-67
2022/11/12 09:40:38;;;;;;;11.50;8.48;;;;;;;9.61;79.19;101973.47;2074592;85;32321;-67
2022/11/12 09:43:48;;;;;;;16.32;8.28;;;;;;;9.71;78.92;101981.74;2088345;83;30151;-67
2022/11/12 09:47:24;;;;;;;14.73;8.85;;;;;;;9.81;78.92;101980.25;2138630;83;27681;-68
2022/11/12 09:50:32;;;;;;;13.70;8.33;;;;;;;9.91;78.49;101975.60;2104168;84;28754;-68
2022/11/12 09:53:57;;;;;;;16.62;10.35;;;;;;;10.00;78.35;101978.98;2104455;84;31071;-69
2022/11/12 09:56:58;;;;;;;14.45;9.18;;;;;;;10.09;78.17;101976.58;2104564;84;32945;-68
2022/11/12 10:00:02;;;;;;;13.53;9.23;;;;;;;10.17;77.67;101983.11;2104609;84;29318;-68
2022/11/12 10:03:35;;;;;;;16.85;9.03;;;;;;;10.24;77.45;101983.39;2104724;84;27639;-68
2022/11/12 10:06:48;;;;;;;14.87;8.53;;;;;;;10.29;77.39;101985.52;2104616;84;29455;-68
2022/11/12 10:10:16;;;;;;;13.70;8.38;;;;;;;10.38;77.27;101972.42;2104172;84;31870;-68
2022/11/12 10:13:32;;;;;;;13.93;8.08;;;;;;;10.44;77.04;101968.72;2104362;84;33050;-68
2022/11/12 10:16:57;;;;;;;13.55;8.55;;;;;;;10.49;76.73;101970.38;2104403;84;29395;-68
2022/11/12 10:20:29;;;;;;;11.85;7.90;;;;;;;10.57;76.72;101974.22;2104889;84;27630;-68
2022/11/12 10:23:41;;;;;;;11.38;7.70;;;;;;;10.62;76.53;101970.09;2104509;84;28644;-67
2022/11/12 10:26:43;;;;;;;11.12;6.55;;;;;;;10.72;76.45;101971.66;2104523;84;31817;-68
2022/11/12 10:30:04;;;;;;;12.45;7.67;;;;;;;10.75;75.91;101970.25;2104559;84;33002;-67
2022/11/12 10:33:09;;;;;;;13.35;6.95;;;;;;;10.80;75.80;101974.16;2104471;84;30108;-68
2022/11/12 10:36:19;;;;;;;14.47;7.47;;;;;;;10.83;75.54;101971.41;2104631;84;27761;-68
2022/11/12 10:39:43;;;;;;;15.58;8.48;;;;;;;10.89;75.60;101971.72;2104546;84;28657;-67
2022/11/12 10:43:01;;;;;;;17.42;9.15;;;;;;;10.95;75.58;101966.19;2104368;84;32011;-69
2022/11/12 10:46:20;;;;;;;12.68;7.10;;;;;;;11.02;75.40;101958.43;2113595;83;33031;-67
2022/11/12 10:49:24;;;;;;;13.05;7.65;;;;;;;11.10;75.03;101955.55;2120612;83;30230;-68
2022/11/12 10:52:27;;;;;;;12.23;7.20;;;;;;;11.18;74.83;101955.36;2117037;83;27753;-67
2022/11/12 10:55:55;;;;;;;12.55;7.58;;;;;;;11.25;74.83;101968.58;2144566;82;28631;-69
2022/11/12 10:59:22;;;;;;;13.30;6.83;;;;;;;11.31;74.53;101958.14;2143263;82;31074;-68
2022/11/12 11:02:25;;;;;;;10.05;6.45;;;;;;;11.39;74.34;101957.50;2144097;83;34154;-68
2022/11/12 11:05:46;;;;;;;13.95;8.38;;;;;;;11.47;74.35;101953.70;2144543;82;29746;-67
2022/11/12 11:08:51;;;;;;;10.43;6.20;;;;;;;11.52;74.00;101957.16;2144831;82;28069;-68
2022/11/12 11:11:53;;;;;;;;;;;;;;;11.56;73.65;101961.53;2147263;81;28707;-69
2022/11/12 11:15:09;;;;;;;11.25;6.80;;;;;;;11.60;73.32;101954.27;2144279;82;31201;-68
2022/11/12 11:18:12;;;;;;;13.78;7.10;;;;;;;11.63;73.24;101950.16;2064121;85;33736;-67
2022/11/12 11:21:39;;;;;;;12.45;6.87;;;;;;;11.68;73.29;101941.50;2051985;85;29838;-65
2022/11/12 11:25:13;;;;;;;13.00;7.25;;;;;;;11.73;73.06;101942.73;2074955;85;27733;-67
2022/11/12 11:28:29;;;;;;;10.93;6.85;;;;;;;11.78;73.03;101944.81;2074744;84;30009;-70
2022/11/12 11:31:45;;;;;;;13.48;6.75;;;;;;;11.82;72.76;101938.44;2075311;85;32056;-68
2022/11/12 11:34:55;;;;;;;11.95;6.72;;;;;;;11.81;72.76;101936.67;2074823;84;33896;-70
2022/11/12 11:38:41;;;;;;;8.58;6.30;;;;;;;11.90;72.15;101944.93;2075387;85;29334;-69
2022/11/12 11:42:12;;;;;;;10.28;6.55;;;;;;;11.90;72.31;101940.45;2073672;85;27770;-66
2022/11/12 11:45:59;;;;;;;12.37;6.10;;;;;;;11.94;72.14;101935.39;2072873;84;29968;-70
2022/11/12 11:49:09;;;;;;;19.45;7.10;;;;;;;11.98;72.12;101938.89;2073727;85;31901;-68
2022/11/12 11:52:33;;;;;;;10.30;6.53;;;;;;;11.99;71.78;101934.84;2074092;85;33699;-71
2022/11/12 11:56:07;;;;;;;11.88;6.15;;;;;;;12.03;71.73;101938.78;2074173;84;29526;-71
2022/11/12 11:59:20;;;;;;;9.88;6.87;;;;;;;12.03;71.78;101932.06;2074282;85;27856;-70
2022/11/12 12:03:12;;;;;;;10.93;6.25;;;;;;;12.06;71.54;101933.33;2074322;85;28734;-67
2022/11/12 12:06:28;;;;;;;11.15;6.28;;;;;;;12.08;71.49;101943.09;2073151;85;27792;-69
2022/11/12 12:09:55;;;;;;;10.83;6.73;;;;;;;12.09;71.38;101938.14;2074473;85;33008;-64
2022/11/12 12:13:12;;;;;;;12.45;7.00;;;;;;;12.10;71.23;101938.55;2074036;85;30227;-65
2022/11/12 12:16:34;;;;;;;11.78;6.72;;;;;;;12.11;71.24;101938.98;2074013;85;27746;-65
2022/11/12 12:20:09;;;;;;;11.73;6.75;;;;;;;12.12;71.11;101940.73;2074705;85;29728;-65
2022/11/12 12:23:28;;;;;;;18.55;7.03;;;;;;;12.14;71.02;101941.58;2074582;85;31478;-66
2022/11/12 12:26:54;;;;;;;13.05;7.47;;;;;;;12.15;71.07;101931.70;2106923;84;33774;-66
2022/11/12 12:30:01;;;;;;;9.75;7.00;;;;;;;12.16;70.96;101938.83;2111177;83;29330;-69
2022/11/12 12:33:17;;;;;;;13.78;7.60;;;;;;;12.18;71.08;101941.46;2111326;84;27651;-66
2022/11/12 12:36:35;;;;;;;12.90;7.62;;;;;;;12.19;70.93;101937.84;2103099;84;29801;-67
2022/11/12 12:40:00;;;;;;;12.98;8.38;;;;;;;12.21;70.75;101939.59;2111177;84;31030;-69
2022/11/12 12:43:25;;;;;;;14.75;7.70;;;;;;;12.23;70.57;101940.87;2111396;84;32975;-69
2022/11/12 12:46:30;;;;;;;12.27;7.50;;;;;;;12.26;70.57;101939.44;2107285;83;31845;-67
2022/11/12 12:49:33;;;;;;;16.93;9.18;;;;;;;12.27;70.55;101935.83;2104843;84;27784;-68
2022/11/12 12:53:03;;;;;;;12.60;7.78;;;;;;;12.28;70.48;101929.05;2104663;84;28634;-67
2022/11/12 12:56:08;;;;;;;18.42;8.15;;;;;;;12.30;70.47;101935.73;2074809;85;31845;-66
2022/11/12 12:59:21;;;;;;;12.53;7.97;;;;;;;12.30;70.44;101942.45;2071265;85;32980;-70
2022/11/12 13:02:24;;;;;;;14.30;8.03;;;;;;;12.28;70.21;101938.93;2074983;84;29958;-72
2022/11/12 13:05:36;;;;;;;14.80;8.05;;;;;;;12.25;70.22;101939.88;2071565;85;27772;-69
2022/11/12 13:08:37;;;;;;;14.10;7.25;;;;;;;12.24;70.19;101940.84;2034369;87;28712;-68
2022/11/12 13:15:12;;;;;;;11.33;7.35;;;;;;;12.21;69.98;101943.61;2035658;87;32807;-69
2022/11/12 13:18:41;;;;;;;14.00;7.95;;;;;;;12.16;69.74;101944.20;2036038;87;29329;-73
2022/11/12 13:21:43;;;;;;;14.45;8.18;;;;;;;12.11;69.90;101944.34;2051695;84;27671;-71
2022/11/12 13:25:19;;;;;;;15.13;7.92;;;;;;;12.08;69.93;101939.06;2063783;86;28760;-69
2022/11/12 13:28:18;;;;;;;19.35;8.10;;;;;;;12.05;70.00;101931.09;2062700;86;31024;-68
2022/11/12 13:31:27;;;;;;;12.95;7.72;;;;;;;12.03;70.16;101922.66;2063322;86;34232;-69
2022/11/12 13:34:31;;;;;;;16.02;8.08;;;;;;;11.98;70.12;101923.67;2075414;85;30367;-70
2022/11/12 13:37:33;;;;;;;15.30;8.60;;;;;;;11.95;70.16;101933.60;2076043;85;27623;-69
2022/11/12 13:40:40;;;;;;;19.27;7.70;;;;;;;11.91;70.31;101927.45;2034519;87;29996;-69
2022/11/12 13:43:46;;;;;;;15.60;9.48;;;;;;;11.89;70.36;101926.61;2063645;86;31472;-68
2022/11/12 13:46:49;;;;;;;17.37;9.53;;;;;;;11.85;70.46;101923.11;2100938;84;32977;-67
2022/11/12 13:49:51;;;;;;;17.10;10.38;;;;;;;11.82;70.51;101926.35;2104151;84;30202;-69
2022/11/12 13:52:53;;;;;;;17.30;10.80;;;;;;;11.77;70.53;101926.49;2104314;84;27715;-67
2022/11/12 13:55:54;;;;;;;18.23;10.80;;;;;;;11.72;70.73;101931.10;2104144;84;28642;-68
2022/11/12 13:59:21;;;;;;;17.12;11.90;;;;;;;11.69;70.84;101923.12;2107330;84;32284;-66
2022/11/12 14:02:26;;;;;;;17.73;11.80;;;;;;;11.65;70.90;101924.16;2104171;84;32975;-71
2022/11/12 14:05:28;;;;;;;;;;;;;;;11.58;71.01;101922.11;2108637;83;29392;-71
2022/11/12 14:08:44;;;;;;;16.42;11.65;;;;;;;11.53;71.16;101920.01;2132116;83;27700;-76
2022/11/12 14:12:13;;;;;;;22.50;12.58;;;;;;;11.45;71.25;101920.22;2094887;84;28690;-67
2022/11/12 14:15:43;;;;;;;21.57;13.48;;;;;;;11.41;71.44;101922.55;2095617;84;31592;-73
2022/11/12 14:19:23;;;;;;;27.15;16.32;;;;;;;11.34;71.63;101923.62;2095323;84;33762;-72
2022/11/12 14:22:25;;;;;;;23.85;14.47;;;;;;;11.26;71.79;101922.49;2095289;84;30499;-73
2022/11/12 14:25:27;;;;;;;22.32;13.48;;;;;;;11.17;72.04;101923.61;2095502;84;27777;-70
2022/11/12 14:28:34;;;;;;;20.90;13.03;;;;;;;11.07;72.12;101932.83;2095301;84;29735;-67
2022/11/12 14:31:36;;;;;;;21.75;13.30;;;;;;;10.97;72.24;101925.95;2095128;84;32057;-67
2022/11/12 14:34:38;;;;;;;20.25;12.18;;;;;;;10.88;72.29;101924.38;2095222;84;34323;-69
2022/11/12 14:37:41;;;;;;;20.12;10.60;;;;;;;10.78;72.37;101929.08;2095416;84;30002;-70
2022/11/12 14:40:55;;;;;;;19.50;11.85;;;;;;;10.67;72.37;101935.16;2095493;84;27681;-70
2022/11/12 14:44:00;;;;;;;18.32;10.50;;;;;;;10.56;72.43;101934.07;2095276;84;30101;-69